createdAt,value
2023-03-02T00:01:42.365Z,52.66
2023-03-02T00:04:08.837Z,51.74
2023-03-02T00:06:35.240Z,52.37
2023-03-02T00:09:01.639Z,52.74
2023-03-02T00:11:28.004Z,52.52
2023-03-02T00:13:54.444Z,51.70
2023-03-02T00:16:20.817Z,51.86
2023-03-02T00:18:47.263Z,51.90
2023-03-02T00:21:13.628Z,52.38
2023-03-02T00:23:40.045Z,52.26
2023-03-02T00:26:06.440Z,51.96
2023-03-02T00:28:32.844Z,52.25
2023-03-02T00:30:59.290Z,51.37
2023-03-02T00:33:25.660Z,52.21
2023-03-02T00:35:52.031Z,52.64
2023-03-02T00:38:18.439Z,52.49
2023-03-02T00:40:52.342Z,52.17
2023-03-02T00:43:18.694Z,52.39
2023-03-02T00:45:45.235Z,52.95
2023-03-02T00:48:11.607Z,52.61
2023-03-02T00:50:38.015Z,52.92
2023-03-02T00:53:04.443Z,53.19
2023-03-02T00:55:30.875Z,52.35
2023-03-02T00:57:57.309Z,52.50
2023-03-02T01:00:23.878Z,52.72
2023-03-02T01:02:50.682Z,52.74
2023-03-02T01:05:36.963Z,52.80
2023-03-02T01:08:03.475Z,52.80
2023-03-02T01:10:29.849Z,52.54
2023-03-02T01:15:36.540Z,53.06
2023-03-02T01:18:02.959Z,52.43
2023-03-02T01:20:29.329Z,52.87
2023-03-02T01:22:55.697Z,52.75
2023-03-02T01:25:22.227Z,52.99
2023-03-02T01:30:29.094Z,52.85
2023-03-02T01:33:02.846Z,52.88
2023-03-02T01:35:29.731Z,53.02
2023-03-02T01:37:56.292Z,53.28
2023-03-02T01:40:22.708Z,52.56
2023-03-02T01:42:49.185Z,52.59
2023-03-02T01:45:15.675Z,52.79
2023-03-02T01:47:42.113Z,52.57
2023-03-02T01:50:08.581Z,53.50
2023-03-02T01:52:34.949Z,53.02
2023-03-02T01:55:01.312Z,53.00
2023-03-02T01:57:27.826Z,52.95
2023-03-02T01:59:54.331Z,53.63
2023-03-02T02:02:20.716Z,53.21
2023-03-02T02:04:47.109Z,53.36
2023-03-02T02:07:13.454Z,53.10
2023-03-02T02:09:39.854Z,53.04
2023-03-02T02:12:06.246Z,53.36
2023-03-02T02:14:32.627Z,53.90
2023-03-02T02:19:49.771Z,54.20
2023-03-02T02:22:16.734Z,53.83
2023-03-02T02:24:43.084Z,53.76
2023-03-02T02:27:10.453Z,54.26
2023-03-02T02:29:36.901Z,54.53
2023-03-02T02:32:03.387Z,55.05
2023-03-02T02:34:29.892Z,54.19
2023-03-02T02:36:56.262Z,54.20
2023-03-02T02:39:22.783Z,53.60
2023-03-02T02:41:49.598Z,52.69
2023-03-02T02:44:15.986Z,53.05
2023-03-02T02:46:42.403Z,53.05
2023-03-02T02:49:08.820Z,53.95
2023-03-02T02:51:35.244Z,53.73
2023-03-02T02:54:01.588Z,53.73
2023-03-02T02:56:27.947Z,53.63
2023-03-02T02:58:54.417Z,54.01
2023-03-02T03:01:23.146Z,54.32
2023-03-02T03:03:49.690Z,53.65
2023-03-02T03:06:17.167Z,54.13
2023-03-02T03:08:43.565Z,54.36
2023-03-02T03:11:10.003Z,53.82
2023-03-02T03:13:36.444Z,54.38
2023-03-02T03:16:04.359Z,54.12
2023-03-02T03:18:30.722Z,54.47
2023-03-02T03:20:57.143Z,54.70
2023-03-02T03:23:23.732Z,53.96
2023-03-02T03:25:50.171Z,54.12
2023-03-02T03:28:16.537Z,54.24
2023-03-02T03:30:42.961Z,54.24
2023-03-02T03:33:09.412Z,53.65
2023-03-02T03:35:35.758Z,54.07
2023-03-02T03:38:02.350Z,53.68
2023-03-02T03:40:29.724Z,53.03
2023-03-02T03:42:59.827Z,53.56
2023-03-02T03:45:30.336Z,54.29
2023-03-02T03:47:57.213Z,53.94
2023-03-02T03:50:23.586Z,53.71
2023-03-02T03:52:49.955Z,53.53
2023-03-02T03:55:16.419Z,53.57
2023-03-02T03:57:43.143Z,52.87
2023-03-02T04:00:09.482Z,52.90
2023-03-02T04:02:35.887Z,53.74
2023-03-02T04:05:02.348Z,52.66
2023-03-02T04:07:31.454Z,53.51
2023-03-02T04:09:57.876Z,52.92
2023-03-02T04:12:24.223Z,53.23
2023-03-02T04:14:50.589Z,54.38
2023-03-02T04:17:17.002Z,54.22
2023-03-02T04:19:53.598Z,54.12
2023-03-02T04:22:19.958Z,53.73
2023-03-02T04:24:46.364Z,53.92
2023-03-02T04:27:12.731Z,53.78
2023-03-02T04:29:39.188Z,53.37
2023-03-02T04:32:05.689Z,53.14
2023-03-02T04:34:32.146Z,53.23
2023-03-02T04:36:58.748Z,53.49
2023-03-02T04:39:25.220Z,53.88
2023-03-02T04:41:53.467Z,53.49
2023-03-02T04:44:19.960Z,53.63
2023-03-02T04:46:46.376Z,53.53
2023-03-02T04:49:12.808Z,53.18
2023-03-02T04:51:39.191Z,54.12
2023-03-02T04:56:45.941Z,53.26
2023-03-02T04:59:12.317Z,53.15
2023-03-02T05:01:38.720Z,52.86
2023-03-02T05:04:06.201Z,52.72
2023-03-02T05:06:38.751Z,53.08
2023-03-02T05:09:05.120Z,52.99
2023-03-02T05:11:31.506Z,52.77
2023-03-02T05:13:57.936Z,52.15
2023-03-02T05:16:24.352Z,52.89
2023-03-02T05:18:57.987Z,52.71
2023-03-02T05:21:24.355Z,53.10
2023-03-02T05:23:50.775Z,53.21
2023-03-02T05:26:17.341Z,53.12
2023-03-02T05:28:43.727Z,53.24
2023-03-02T05:31:10.117Z,52.60
2023-03-02T05:36:19.308Z,52.62
2023-03-02T05:38:46.689Z,52.90
2023-03-02T05:41:17.317Z,52.92
2023-03-02T05:43:49.251Z,52.62
2023-03-02T05:46:15.610Z,53.64
2023-03-02T05:48:42.013Z,52.69
2023-03-02T05:51:08.397Z,52.38
2023-03-02T05:53:34.791Z,52.83
2023-03-02T05:58:42.035Z,53.37
2023-03-02T06:01:08.516Z,53.24
2023-03-02T06:03:34.931Z,52.88
2023-03-02T06:06:01.297Z,53.30
2023-03-02T06:08:27.933Z,53.14
2023-03-02T06:10:54.288Z,53.07
2023-03-02T06:13:20.731Z,52.76
2023-03-02T06:15:47.133Z,52.45
2023-03-02T06:21:04.749Z,52.41
2023-03-02T06:23:31.448Z,52.84
2023-03-02T06:25:57.838Z,52.54
2023-03-02T06:28:24.343Z,52.76
2023-03-02T06:30:50.678Z,53.68
2023-03-02T06:33:17.090Z,54.71
2023-03-02T06:35:44.029Z,54.38
2023-03-02T06:38:13.202Z,54.86
2023-03-02T06:40:39.591Z,55.58
2023-03-02T06:43:06.137Z,56.53
2023-03-02T06:45:32.575Z,56.98
2023-03-02T06:47:59.141Z,56.30
2023-03-02T06:50:25.517Z,56.61
2023-03-02T06:52:51.922Z,56.45
2023-03-02T06:55:18.340Z,56.29
2023-03-02T06:57:44.797Z,56.81
2023-03-02T07:00:11.591Z,58.49
2023-03-02T07:02:38.001Z,59.89
2023-03-02T07:05:04.449Z,59.12
2023-03-02T07:07:31.070Z,58.76
2023-03-02T07:10:00.285Z,58.04
2023-03-02T07:12:26.688Z,58.75
2023-03-02T07:14:53.128Z,58.08
2023-03-02T07:17:19.867Z,57.89
2023-03-02T07:19:46.233Z,57.54
2023-03-02T07:22:12.625Z,57.04
2023-03-02T07:24:44.686Z,57.20
2023-03-02T07:27:11.493Z,57.79
2023-03-02T07:29:38.019Z,57.53
2023-03-02T07:32:06.668Z,56.64
2023-03-02T07:34:33.223Z,56.71
2023-03-02T07:37:13.307Z,56.71
2023-03-02T07:39:49.079Z,55.99
2023-03-02T07:42:15.600Z,54.82
2023-03-02T07:44:42.044Z,55.00
2023-03-02T07:47:08.562Z,55.08
2023-03-02T07:49:35.015Z,54.79
2023-03-02T07:52:01.551Z,55.09
2023-03-02T07:54:27.981Z,55.28
2023-03-02T07:56:54.529Z,55.94
2023-03-02T07:59:20.965Z,56.74
2023-03-02T08:01:47.526Z,55.89
2023-03-02T08:04:14.103Z,56.04
2023-03-02T08:06:44.860Z,56.25
2023-03-02T08:09:11.273Z,55.68
2023-03-02T08:11:37.687Z,55.13
2023-03-02T08:14:04.154Z,54.56
2023-03-02T08:16:30.703Z,54.36
2023-03-02T08:18:59.678Z,54.10
2023-03-02T08:21:26.414Z,54.56
2023-03-02T08:23:52.940Z,52.35
2023-03-02T08:26:19.489Z,51.63
2023-03-02T08:28:45.934Z,51.90
2023-03-02T08:31:12.439Z,52.25
2023-03-02T08:33:38.911Z,52.77
2023-03-02T08:36:05.533Z,53.04
2023-03-02T08:38:31.963Z,52.72
2023-03-02T08:40:58.357Z,52.63
2023-03-02T08:43:24.768Z,53.74
2023-03-02T08:45:51.215Z,53.44
2023-03-02T08:48:17.727Z,53.33
2023-03-02T08:50:44.187Z,53.95
2023-03-02T08:53:10.623Z,53.58
2023-03-02T08:55:37.073Z,52.46
2023-03-02T08:58:03.525Z,52.98
2023-03-02T09:00:31.645Z,53.25
2023-03-02T09:02:58.398Z,52.57
2023-03-02T09:05:24.903Z,53.72
2023-03-02T09:07:51.398Z,54.18
2023-03-02T09:10:17.831Z,53.36
2023-03-02T09:12:44.260Z,53.59
2023-03-02T09:15:10.834Z,53.84
2023-03-02T09:17:37.274Z,53.26
2023-03-02T09:20:03.713Z,54.13
2023-03-02T09:22:30.171Z,54.21
2023-03-02T09:24:56.614Z,54.30
2023-03-02T09:27:23.123Z,54.31
2023-03-02T09:29:49.636Z,54.66
2023-03-02T09:32:16.342Z,54.12
2023-03-02T09:34:42.887Z,54.30
2023-03-02T09:37:09.317Z,53.74
2023-03-02T09:39:35.795Z,54.63
2023-03-02T09:42:02.202Z,53.84
2023-03-02T09:44:29.575Z,52.54
2023-03-02T09:46:55.998Z,53.85
2023-03-02T09:49:22.457Z,53.20
2023-03-02T09:51:48.987Z,52.93
2023-03-02T09:54:15.423Z,53.43
2023-03-02T09:56:41.931Z,53.35
2023-03-02T09:59:10.393Z,52.76
2023-03-02T10:01:36.838Z,52.67
2023-03-02T10:04:03.379Z,52.20
2023-03-02T10:06:30.007Z,51.93
2023-03-02T10:08:56.661Z,52.29
2023-03-02T10:11:23.083Z,51.75
2023-03-02T10:13:49.687Z,52.16
2023-03-02T10:16:16.115Z,53.34
2023-03-02T10:18:42.648Z,52.91
2023-03-02T10:21:09.081Z,52.35
2023-03-02T10:23:35.553Z,52.76
2023-03-02T10:26:02.208Z,52.74
2023-03-02T10:28:28.662Z,52.77
2023-03-02T10:30:55.235Z,52.58
2023-03-02T10:33:21.761Z,53.05
2023-03-02T10:35:48.305Z,52.06
2023-03-02T10:38:14.935Z,51.81
2023-03-02T10:40:41.382Z,52.52
2023-03-02T10:43:07.821Z,52.52
2023-03-02T10:45:38.673Z,52.88
2023-03-02T10:48:05.119Z,52.78
2023-03-02T10:50:31.699Z,53.09
2023-03-02T10:53:00.625Z,52.42
2023-03-02T10:55:27.986Z,53.47
2023-03-02T10:57:54.374Z,53.35
2023-03-02T11:00:20.854Z,52.42
2023-03-02T11:02:47.347Z,53.01
2023-03-02T11:05:13.755Z,53.54
2023-03-02T11:07:40.197Z,51.78
2023-03-02T11:10:06.675Z,51.88
2023-03-02T11:12:33.196Z,50.86
2023-03-02T11:14:59.798Z,51.32
2023-03-02T11:17:26.303Z,50.60
2023-03-02T11:19:52.797Z,50.96
2023-03-02T11:22:19.288Z,50.87
2023-03-02T11:24:45.884Z,50.59
2023-03-02T11:27:13.893Z,50.38
2023-03-02T11:29:40.405Z,51.02
2023-03-02T11:32:06.878Z,50.20
2023-03-02T11:34:33.261Z,50.27
2023-03-02T11:36:59.798Z,50.41
2023-03-02T11:39:26.451Z,50.26
2023-03-02T11:41:52.866Z,51.01
2023-03-02T11:44:20.521Z,51.78
2023-03-02T11:46:47.085Z,51.61
2023-03-02T11:49:13.515Z,50.74
2023-03-02T11:51:47.144Z,50.67
2023-03-02T11:54:18.800Z,50.76
2023-03-02T11:56:45.298Z,51.09
2023-03-02T11:59:11.915Z,52.19
2023-03-02T12:01:39.835Z,53.45
2023-03-02T12:09:13.281Z,52.05
2023-03-02T12:11:39.820Z,52.05
2023-03-02T12:14:06.240Z,51.80
2023-03-02T12:19:23.061Z,54.99
2023-03-02T12:21:55.092Z,54.57
2023-03-02T12:24:21.629Z,53.63
2023-03-02T12:26:48.490Z,52.77
2023-03-02T12:29:15.087Z,54.00
2023-03-02T12:31:41.531Z,54.86
2023-03-02T12:34:09.386Z,54.49
2023-03-02T12:36:35.813Z,53.29
2023-03-02T12:39:02.327Z,54.35
2023-03-02T12:41:28.757Z,53.50
2023-03-02T12:43:55.381Z,54.87
2023-03-02T12:46:21.936Z,55.54
2023-03-02T12:48:49.256Z,54.25
2023-03-02T12:51:16.131Z,54.30
2023-03-02T12:53:42.634Z,54.63
2023-03-02T12:56:11.880Z,54.45
2023-03-02T12:58:38.362Z,54.04
2023-03-02T13:01:05.003Z,53.67
2023-03-02T13:03:31.786Z,53.05
2023-03-02T13:06:00.909Z,52.78
2023-03-02T13:08:27.369Z,53.91
2023-03-02T13:10:53.804Z,52.92
2023-03-02T13:13:20.329Z,54.50
2023-03-02T13:15:46.786Z,54.29
2023-03-02T13:18:13.179Z,53.86
2023-03-02T13:20:45.698Z,54.55
2023-03-02T13:23:18.200Z,52.94
2023-03-02T13:25:44.655Z,53.68
2023-03-02T13:28:11.118Z,52.50
2023-03-02T13:30:39.793Z,52.80
2023-03-02T13:33:06.329Z,52.05
2023-03-02T13:35:38.042Z,53.52
2023-03-02T13:38:04.634Z,53.17
2023-03-02T13:40:31.285Z,52.67
2023-03-02T13:42:57.784Z,53.35
2023-03-02T13:45:30.384Z,52.94
2023-03-02T13:48:04.085Z,53.28
2023-03-02T13:50:30.606Z,52.67
2023-03-02T13:52:59.129Z,53.34
2023-03-02T13:55:27.793Z,53.65
2023-03-02T13:58:19.409Z,52.44
2023-03-02T14:00:47.518Z,52.50
2023-03-02T14:03:24.458Z,53.68
2023-03-02T14:05:51.024Z,52.82
2023-03-02T14:08:17.495Z,53.13
2023-03-02T14:10:43.950Z,53.39
2023-03-02T14:13:10.848Z,52.51
2023-03-02T14:15:37.380Z,53.55
2023-03-02T14:18:05.219Z,53.35
2023-03-02T14:20:31.693Z,53.15
2023-03-02T14:22:58.167Z,53.37
2023-03-02T14:25:27.113Z,53.03
2023-03-02T14:27:53.620Z,53.63
2023-03-02T14:30:20.089Z,53.47
2023-03-02T14:32:46.665Z,53.02
2023-03-02T14:35:13.127Z,52.37
2023-03-02T14:37:39.687Z,52.89
2023-03-02T14:40:06.596Z,52.10
2023-03-02T14:42:32.971Z,52.23
2023-03-02T14:45:00.009Z,52.56
2023-03-02T14:47:27.762Z,51.94
2023-03-02T14:55:32.088Z,52.99
2023-03-02T14:57:58.849Z,52.10
2023-03-02T15:00:25.405Z,51.15
2023-03-02T15:02:51.978Z,51.76
2023-03-02T15:05:18.611Z,50.83
2023-03-02T15:07:45.028Z,50.49
2023-03-02T15:10:14.089Z,50.18
2023-03-02T15:12:40.503Z,50.20
2023-03-02T15:15:06.919Z,49.59
2023-03-02T15:17:33.368Z,49.69
2023-03-02T15:19:59.837Z,49.86
2023-03-02T15:22:26.217Z,49.41
2023-03-02T15:24:52.792Z,49.28
2023-03-02T15:27:19.255Z,51.18
2023-03-02T15:29:45.837Z,50.98
2023-03-02T15:32:12.389Z,50.93
2023-03-02T15:34:38.952Z,52.38
2023-03-02T15:37:05.372Z,52.65
2023-03-02T15:39:31.848Z,52.67
2023-03-02T15:41:58.334Z,52.66
2023-03-02T15:44:24.831Z,52.74
2023-03-02T15:46:51.305Z,53.10
2023-03-02T15:49:17.771Z,54.13
2023-03-02T15:51:45.278Z,53.30
2023-03-02T15:54:11.710Z,53.06
2023-03-02T15:56:43.952Z,52.78
2023-03-02T15:59:10.605Z,52.92
2023-03-02T16:01:39.806Z,53.15
2023-03-02T16:04:06.301Z,53.50
2023-03-02T16:06:34.770Z,53.69
2023-03-02T16:09:01.207Z,52.96
2023-03-02T16:11:27.737Z,52.83
2023-03-02T16:13:54.213Z,52.73
2023-03-02T16:16:20.746Z,53.38
2023-03-02T16:18:47.202Z,52.80
2023-03-02T16:21:13.594Z,53.49
2023-03-02T16:23:39.985Z,53.15
2023-03-02T16:26:06.433Z,52.79
2023-03-02T16:28:32.871Z,52.89
2023-03-02T16:30:59.263Z,54.22
2023-03-02T16:33:25.942Z,54.55
2023-03-02T16:35:52.509Z,53.13
2023-03-02T16:38:19.026Z,51.96
2023-03-02T16:40:45.497Z,49.52
2023-03-02T16:43:11.944Z,46.67
2023-03-02T16:45:38.429Z,45.94
2023-03-02T16:48:04.868Z,44.14
2023-03-02T16:50:31.318Z,43.09
2023-03-02T16:52:59.921Z,43.64
2023-03-02T16:55:26.410Z,43.22
2023-03-02T16:57:52.903Z,43.40
2023-03-02T17:00:19.382Z,43.90
2023-03-02T17:02:45.813Z,46.17
2023-03-02T17:05:12.329Z,47.29
2023-03-02T17:07:38.703Z,48.54
2023-03-02T17:10:05.271Z,49.39
2023-03-02T17:12:31.696Z,50.07
2023-03-02T17:14:58.222Z,51.01
2023-03-02T17:17:24.626Z,51.19
2023-03-02T17:19:51.046Z,51.63
2023-03-02T17:22:20.461Z,52.08
2023-03-02T17:24:46.941Z,52.70
2023-03-02T17:27:24.642Z,52.82
2023-03-02T17:29:54.421Z,53.68
2023-03-02T17:32:20.900Z,53.69
2023-03-02T17:34:49.849Z,53.72
2023-03-02T17:37:16.255Z,53.80
2023-03-02T17:39:42.767Z,54.52
2023-03-02T17:42:09.139Z,54.33
2023-03-02T17:44:35.537Z,54.19
2023-03-02T17:47:01.979Z,54.57
2023-03-02T17:49:28.439Z,54.75
2023-03-02T17:51:54.881Z,55.00
2023-03-02T17:54:21.324Z,55.10
2023-03-02T17:56:51.846Z,55.46
2023-03-02T17:59:18.373Z,55.01
2023-03-02T18:01:44.886Z,54.88
2023-03-02T18:04:14.122Z,54.70
2023-03-02T18:06:40.724Z,55.24
2023-03-02T18:09:10.029Z,55.17
2023-03-02T18:11:39.150Z,54.85
2023-03-02T18:14:05.607Z,55.50
2023-03-02T18:16:32.194Z,55.28
2023-03-02T18:18:58.823Z,55.15
2023-03-02T18:21:25.630Z,55.71
2023-03-02T18:23:52.079Z,55.94
2023-03-02T18:26:18.675Z,56.05
2023-03-02T18:28:45.259Z,55.88
2023-03-02T18:31:11.829Z,55.98
2023-03-02T18:33:38.475Z,56.12
2023-03-02T18:36:04.910Z,55.96
2023-03-02T18:38:33.763Z,55.48
2023-03-02T18:41:00.275Z,55.95
2023-03-02T18:43:28.821Z,55.81
2023-03-02T18:45:55.357Z,55.84
2023-03-02T18:48:21.846Z,55.59
2023-03-02T18:50:50.697Z,55.48
2023-03-02T18:53:17.123Z,55.50
2023-03-02T18:55:43.685Z,54.50
2023-03-02T19:46:43.728Z,54.27
2023-03-02T20:02:41.387Z,53.27
2023-03-02T20:21:03.276Z,53.72
2023-03-02T21:47:11.350Z,55.35
2023-03-02T21:49:37.825Z,56.26
2023-03-02T21:52:04.273Z,56.19
2023-03-02T21:54:30.725Z,56.29
2023-03-02T21:56:57.164Z,57.06
2023-03-02T21:59:23.631Z,56.76
2023-03-02T22:01:50.321Z,56.79
2023-03-02T22:04:16.847Z,56.18
2023-03-02T22:06:46.275Z,56.92
2023-03-02T22:09:12.741Z,57.65
2023-03-02T22:11:39.265Z,58.76
2023-03-02T22:14:08.455Z,58.39
2023-03-02T22:16:35.017Z,58.51
2023-03-02T22:19:01.528Z,59.43
2023-03-02T22:21:27.925Z,59.45
2023-03-02T22:23:54.362Z,59.41
2023-03-02T22:26:20.843Z,58.61
2023-03-02T22:28:47.465Z,58.30
2023-03-02T22:31:13.908Z,58.65
2023-03-02T22:33:40.640Z,58.53
2023-03-02T22:36:07.105Z,58.63
2023-03-02T22:38:33.681Z,57.97
2023-03-02T22:41:00.416Z,57.83
2023-03-02T22:43:26.805Z,57.36
2023-03-02T22:45:53.219Z,57.25
2023-03-02T22:48:19.762Z,57.11
2023-03-02T22:50:46.214Z,56.71
2023-03-02T22:53:12.614Z,56.56
2023-03-02T22:55:39.012Z,56.21
2023-03-02T22:58:05.479Z,56.69
2023-03-02T23:00:31.886Z,56.95
2023-03-02T23:03:00.287Z,57.17
2023-03-02T23:05:26.647Z,56.77
2023-03-02T23:07:52.992Z,57.13
2023-03-02T23:10:19.385Z,57.16
2023-03-02T23:12:45.819Z,57.54
2023-03-02T23:15:12.222Z,57.41
2023-03-02T23:17:38.688Z,58.10
2023-03-02T23:20:05.294Z,57.87
2023-03-02T23:22:31.755Z,57.62
2023-03-02T23:24:58.130Z,57.38
2023-03-02T23:27:24.558Z,57.32
2023-03-02T23:29:50.912Z,57.66
2023-03-02T23:32:19.437Z,57.73
2023-03-02T23:34:46.158Z,57.93
2023-03-02T23:37:12.589Z,58.16
2023-03-02T23:39:38.972Z,58.17
2023-03-02T23:42:06.951Z,57.77
2023-03-02T23:44:33.385Z,57.67
2023-03-02T23:46:59.786Z,57.58
2023-03-02T23:49:26.212Z,57.63
2023-03-02T23:51:52.653Z,58.05
2023-03-02T23:54:19.060Z,57.90
2023-03-02T23:56:45.552Z,59.24
2023-03-02T23:59:11.970Z,59.60
